AKDT,Max TemperatureF,Mean TemperatureF,Min TemperatureF,Max Dew PointF,MeanDew PointF,Min DewpointF,Max Humidity, Mean Humidity, Min Humidity, Max Sea Level PressureIn, Mean Sea Level PressureIn, Min Sea Level PressureIn, Max VisibilityMiles, Mean VisibilityMiles, Min VisibilityMiles, Max Wind SpeedMPH, Mean Wind SpeedMPH, Max Gust SpeedMPH,PrecipitationIn, CloudCover, Events, WindDirDegrees
2013-5-1,51,43,35,41,37,32,93,75,62,29.61,29.57,29.53,,,,13,10,,0.00,5,,60
2013-5-2,41,37,33,39,36,30,100,93,87,29.78,29.73,29.67,20,14,7,12,3,,0.00,8,Rain,233
2013-5-3,42,37,32,36,33,30,100,85,76,29.94,29.89,29.83,15,9,3,12,8,,0.00,5,Snow,244
2013-5-4,44,38,32,37,35,30,93,84,71,29.91,29.85,29.83,,,,12,9,,0.00,5,,62
2013-5-5,48,36,24,36,30,21,87,66,50,30.13,30.12,30.10,,,,6,3,,0.00,2,,302
2013-5-6,48,40,33,37,30,25,71,61,43,30.18,30.17,30.16,,,,12,4,,0.00,2,,308
2013-5-7,48,42,35,43,38,30,93,78,61,30.22,30.21,30.19,,,,12,8,,0.00,3,,293
2013-5-8,55,44,35,39,37,34,93,70,54,30.25,30.24,30.23,,,,7,2,,0.00,2,,235
2013-5-9,53,44,35,43,36,32,87,68,58,30.21,30.20,30.19,,,,9,5,,0.00,7,,310
2013-5-10,60,45,30,48,42,27,87,72,55,30.16,30.08,29.96,,,,12,3,,0.00,5,,247
2013-5-11,53,40,35,43,36,30,87,77,67,29.83,29.76,29.61,,,,9,2,,0.00,6,,320
2013-5-12,60,50,39,48,42,34,81,68,59,29.68,29.56,29.50,,,,5,2,,0.00,3,,220
2013-5-13,55,44,33,39,37,32,93,67,54,29.51,29.50,29.49,,,,12,5,,0.00,3,,67
2013-5-14,48,37,28,34,31,25,86,67,58,29.61,29.61,29.60,,,,9,5,,0.00,0,,55
2013-5-15,55,42,28,39,33,25,86,62,54,29.68,29.67,29.65,,,,12,4,,0.00,4,,58
2013-5-16,42,40,39,37,35,34,87,81,76,29.56,29.53,29.49,20,17,15,9,9,,0.00,8,Rain,62
2013-5-17,42,37,32,34,31,28,93,77,70,29.62,29.54,29.47,,,,14,9,,0.00,6,,58
2013-5-18,42,33,24,34,29,19,93,78,70,30.11,30.00,29.88,,,,9,8,,0.00,1,,9
2013-5-19,53,40,26,45,37,25,93,78,66,30.52,30.49,30.42,,,,8,3,,0.00,0,,235
2013-5-20,51,42,33,43,38,30,87,78,62,30.57,30.54,30.49,,,,12,5,,0.00,8,,242
2013-5-21,55,46,37,46,40,34,87,75,66,30.38,30.31,30.20,,,,8,3,,0.00,7,,255
2013-5-22,57,50,44,45,40,36,71,64,58,30.07,30.04,30.03,,,,12,7,,0.00,7,Rain,47
2013-5-23,57,50,42,46,43,39,87,74,59,30.11,30.10,30.09,20,20,20,8,3,,0.00,7,Rain,277
2013-5-24,68,52,37,52,45,32,81,66,56,30.10,30.04,29.97,,,,7,1,,0.00,3,,280
2013-5-25,69,54,39,52,43,36,93,60,52,29.92,29.87,29.80,,,,16,5,,0.00,1,,50
2013-5-26,62,50,37,54,43,34,87,76,63,29.86,29.84,29.81,,,,7,1,,0.00,3,,240
2013-5-27,62,52,41,48,44,39,93,74,55,29.97,29.87,29.80,,,,16,4,,0.00,6,,227
2013-5-28,82,58,35,64,51,30,82,61,37,29.77,29.72,29.63,,,,6,0,,0.00,0,,230
2013-5-29,80,61,42,50,43,30,93,44,16,29.68,29.65,29.63,,,,12,3,,0.00,0,,264
2013-5-30,75,60,44,63,51,37,87,61,25,29.88,29.85,29.81,,,,9,2,,0.00,1,,230
2013-5-31,64,53,42,48,45,36,76,65,52,30.07,30.05,30.04,,,,14,4,,0.00,5,,237